Time;durP1;ratioP1;P1;durP2;ratioP2;P2;SDS_P1;SDS_P2;PMS_P1;PMS_P2;Temp;Humidity;BMP_temperature;BMP_pressure;BME280_temperature;BME280_humidity;BME280_pressure;Samples;Min_cycle;Max_cycle;Signal;HPM_P1;HPM_P2
2022/07/09 00:00:39;;;;;;;25.67;7.80;;;16.90;99.90;;;;;;5020924;28;20042;-79
2022/07/09 00:03:05;;;;;;;23.60;8.37;;;16.90;99.90;;;;;;5041050;28;20065;-80
2022/07/09 00:05:30;;;;;;;20.60;7.90;;;16.80;99.90;;;;;;5042867;28;20120;-79
2022/07/09 00:07:56;;;;;;;25.37;7.73;;;16.80;99.90;;;;;;5027992;28;20081;-79
2022/07/09 00:10:22;;;;;;;20.67;7.65;;;16.80;99.90;;;;;;5044760;28;20049;-79
2022/07/09 00:12:47;;;;;;;33.33;8.25;;;16.80;99.90;;;;;;5009618;28;20039;-79
2022/07/09 00:15:13;;;;;;;19.23;7.05;;;16.80;99.90;;;;;;5009593;28;20062;-79
2022/07/09 00:17:39;;;;;;;29.50;7.70;;;16.80;99.90;;;;;;5007078;28;20049;-79
2022/07/09 00:20:05;;;;;;;27.98;9.05;;;16.70;99.90;;;;;;5024451;28;20103;-78
2022/07/09 00:22:32;;;;;;;27.42;7.68;;;16.70;99.90;;;;;;5007206;28;20107;-79
2022/07/09 00:24:58;;;;;;;23.38;8.13;;;16.60;99.90;;;;;;5022914;28;20136;-79
2022/07/09 00:27:24;;;;;;;18.00;7.78;;;16.50;99.90;;;;;;5023558;28;20076;-77
2022/07/09 00:29:50;;;;;;;26.40;8.17;;;16.50;99.90;;;;;;5040039;28;20045;-78
2022/07/09 00:32:16;;;;;;;26.23;8.65;;;16.50;99.90;;;;;;5007727;28;20073;-79
2022/07/09 00:34:41;;;;;;;23.97;8.40;;;16.40;99.90;;;;;;5042371;28;20077;-79
2022/07/09 00:37:08;;;;;;;23.02;8.02;;;16.40;99.90;;;;;;5045304;28;20079;-79
2022/07/09 00:39:33;;;;;;;27.55;8.50;;;16.30;99.90;;;;;;5041506;28;20544;-79
2022/07/09 00:42:07;;;;;;;31.10;9.45;;;16.30;99.90;;;;;;5026904;28;20045;-80
2022/07/09 00:44:33;;;;;;;33.42;10.57;;;16.40;99.90;;;;;;5040990;28;20049;-78
2022/07/09 00:46:59;;;;;;;24.60;9.30;;;16.30;99.90;;;;;;5005826;28;20065;-78
2022/07/09 00:49:27;;;;;;;22.35;9.50;;;16.30;99.90;;;;;;5038331;28;20045;-78
2022/07/09 00:51:53;;;;;;;27.23;11.23;;;16.30;99.90;;;;;;5005253;28;20446;-79
2022/07/09 00:54:19;;;;;;;25.67;10.10;;;16.30;99.90;;;;;;5039331;28;20053;-78
2022/07/09 00:56:46;;;;;;;30.80;10.95;;;16.30;99.90;;;;;;5004530;28;20088;-76
2022/07/09 00:59:13;;;;;;;35.30;9.95;;;16.30;99.90;;;;;;5021666;28;20041;-78
2022/07/09 01:01:39;;;;;;;26.00;9.90;;;16.40;99.90;;;;;;5021234;28;20556;-77
2022/07/09 01:04:06;;;;;;;33.13;11.52;;;16.30;99.90;;;;;;5020967;28;20056;-77
2022/07/09 01:06:34;;;;;;;33.88;11.38;;;16.40;99.90;;;;;;5039701;28;20060;-77
2022/07/09 01:09:01;;;;;;;33.97;11.35;;;16.40;99.90;;;;;;5038630;28;20087;-76
2022/07/09 01:11:27;;;;;;;26.85;10.27;;;16.50;99.90;;;;;;5038262;28;20072;-76
2022/07/09 01:13:53;;;;;;;35.95;12.32;;;16.50;99.90;;;;;;5041100;28;20053;-78
2022/07/09 01:16:20;;;;;;;31.05;11.23;;;16.50;99.90;;;;;;5039442;28;20207;-77
2022/07/09 01:18:46;;;;;;;;;;;16.50;99.90;;;;;;5037951;28;20041;-77
2022/07/09 01:21:13;;;;;;;33.63;11.85;;;16.40;99.90;;;;;;5036871;28;19921;-77
2022/07/09 01:23:39;;;;;;;;;;;16.40;99.90;;;;;;5020157;28;20144;-78
2022/07/09 01:26:05;;;;;;;44.23;11.73;;;16.30;99.90;;;;;;5020177;28;20368;-78
2022/07/09 01:28:31;;;;;;;38.03;12.93;;;16.30;99.90;;;;;;5037654;28;20310;-77
2022/07/09 01:30:57;;;;;;;33.60;12.30;;;16.30;99.90;;;;;;5038919;28;20046;-75
2022/07/09 01:33:22;;;;;;;29.33;11.50;;;16.30;99.90;;;;;;4987962;28;20391;-77
2022/07/09 01:35:48;;;;;;;37.17;11.67;;;16.40;99.90;;;;;;5021324;28;20056;-78
2022/07/09 01:38:14;;;;;;;39.70;11.77;;;16.30;99.90;;;;;;5005137;28;20041;-76
2022/07/09 01:40:40;;;;;;;37.17;11.77;;;16.40;99.90;;;;;;5019830;28;20127;-77
2022/07/09 01:43:06;;;;;;;34.35;12.13;;;16.40;99.90;;;;;;5002898;28;20129;-77
2022/07/09 01:45:32;;;;;;;38.15;13.52;;;16.40;99.90;;;;;;5019757;28;20049;-78
2022/07/09 01:47:58;;;;;;;39.55;12.60;;;16.40;99.90;;;;;;5019109;28;20107;-78
2022/07/09 01:50:23;;;;;;;47.38;13.05;;;16.40;99.90;;;;;;5019558;28;20374;-77
2022/07/09 01:52:50;;;;;;;31.83;12.27;;;16.40;99.90;;;;;;4986762;28;20042;-78
2022/07/09 01:55:16;;;;;;;;;;;16.40;99.90;;;;;;5037563;28;20453;-79
2022/07/09 01:57:42;;;;;;;43.13;13.33;;;16.50;99.90;;;;;;5002882;28;19932;-78
2022/07/09 02:00:08;;;;;;;42.33;14.50;;;16.40;99.90;;;;;;5037120;28;20131;-78
2022/07/09 02:02:33;;;;;;;49.15;14.38;;;16.40;99.90;;;;;;5003289;28;20466;-78
2022/07/09 02:04:59;;;;;;;43.90;13.88;;;16.40;99.90;;;;;;5036921;28;20052;-75
2022/07/09 02:07:25;;;;;;;37.80;13.50;;;16.40;99.90;;;;;;5037782;28;20045;-79
2022/07/09 02:09:51;;;;;;;43.55;13.73;;;16.40;99.90;;;;;;5019507;28;20107;-78
2022/07/09 02:12:17;;;;;;;40.97;12.48;;;16.40;99.90;;;;;;5036036;28;20049;-77
2022/07/09 02:14:43;;;;;;;39.93;14.10;;;16.40;99.90;;;;;;5036685;28;20381;-78
2022/07/09 02:17:09;;;;;;;40.80;12.63;;;16.40;99.90;;;;;;5036643;28;20076;-77
2022/07/09 02:19:34;;;;;;;32.95;11.43;;;16.40;99.90;;;;;;5037566;28;20327;-77
2022/07/09 02:22:00;;;;;;;33.95;12.45;;;16.40;99.90;;;;;;5020007;28;20041;-76
2022/07/09 02:24:26;;;;;;;33.13;11.38;;;16.40;99.90;;;;;;5035843;28;20061;-77
2022/07/09 02:26:52;;;;;;;33.58;12.60;;;16.40;99.90;;;;;;5036610;28;20214;-77
2022/07/09 02:29:17;;;;;;;41.83;13.57;;;16.40;99.90;;;;;;5036229;28;20037;-78
2022/07/09 02:31:43;;;;;;;34.97;11.43;;;16.40;99.90;;;;;;5039284;28;20133;-77
2022/07/09 02:34:09;;;;;;;39.67;12.33;;;16.40;99.90;;;;;;5040224;28;20049;-77
2022/07/09 02:36:34;;;;;;;45.37;12.40;;;16.30;99.90;;;;;;5039023;28;20048;-77
2022/07/09 02:39:00;;;;;;;37.73;11.93;;;16.30;99.90;;;;;;5039281;28;20208;-77
2022/07/09 02:41:26;;;;;;;34.63;12.10;;;16.30;99.90;;;;;;5021672;28;20443;-77
2022/07/09 02:43:52;;;;;;;35.13;12.77;;;16.30;99.90;;;;;;5020190;28;20053;-75
2022/07/09 02:46:17;;;;;;;39.60;12.35;;;16.30;99.90;;;;;;5038552;28;20099;-75
2022/07/09 02:48:43;;;;;;;40.33;13.00;;;16.20;99.90;;;;;;5039155;28;20076;-76
2022/07/09 02:51:09;;;;;;;33.60;12.50;;;16.20;99.90;;;;;;5022501;28;20096;-77
2022/07/09 02:53:34;;;;;;;28.07;12.13;;;16.20;99.90;;;;;;5022417;28;20041;-77
2022/07/09 02:56:00;;;;;;;34.10;12.37;;;16.10;99.90;;;;;;5041146;28;20048;-77
2022/07/09 02:58:26;;;;;;;28.43;11.57;;;16.10;99.90;;;;;;5023274;28;20041;-77
2022/07/09 03:00:52;;;;;;;31.83;12.03;;;16.10;99.90;;;;;;5041675;28;20095;-79
2022/07/09 03:03:18;;;;;;;38.42;12.43;;;16.00;99.90;;;;;;5024361;28;20042;-77
2022/07/09 03:05:43;;;;;;;31.83;11.13;;;16.00;99.90;;;;;;5023821;28;20080;-77
2022/07/09 03:08:09;;;;;;;23.52;10.00;;;15.90;99.90;;;;;;5021977;28;20033;-77
2022/07/09 03:10:35;;;;;;;29.15;10.27;;;15.90;99.90;;;;;;5038110;28;20107;-75
2022/07/09 03:13:01;;;;;;;32.50;12.10;;;15.90;99.90;;;;;;5039168;28;20049;-75
2022/07/09 03:15:27;;;;;;;30.90;10.65;;;15.90;99.90;;;;;;5039328;28;20056;-76
2022/07/09 03:17:52;;;;;;;29.80;11.10;;;16.00;99.90;;;;;;5020885;28;20052;-75
2022/07/09 03:20:18;;;;;;;28.27;10.83;;;16.00;99.90;;;;;;5022856;28;20045;-76
2022/07/09 03:22:44;;;;;;;28.52;10.70;;;16.00;99.90;;;;;;5020762;28;20056;-77
2022/07/09 03:25:10;;;;;;;29.65;10.55;;;16.00;99.90;;;;;;5020214;28;20057;-76
2022/07/09 03:27:36;;;;;;;26.13;10.17;;;16.00;99.90;;;;;;5020122;28;20041;-76
2022/07/09 03:30:03;;;;;;;31.37;10.63;;;16.00;99.90;;;;;;5021012;28;20055;-77
2022/07/09 03:32:29;;;;;;;25.60;9.98;;;16.00;99.90;;;;;;5019679;28;20292;-76
2022/07/09 03:34:55;;;;;;;30.73;9.95;;;16.00;99.90;;;;;;5002403;28;20045;-77
2022/07/09 03:37:20;;;;;;;25.15;9.25;;;16.00;99.90;;;;;;5036955;28;20049;-76
2022/07/09 03:39:47;;;;;;;35.95;9.93;;;16.00;99.90;;;;;;5021164;28;20158;-76
2022/07/09 03:42:13;;;;;;;26.40;9.30;;;16.00;99.90;;;;;;5021383;28;20049;-75
2022/07/09 03:44:39;;;;;;;29.23;8.90;;;16.00;99.90;;;;;;5020008;28;20049;-76
2022/07/09 03:47:06;;;;;;;27.80;10.47;;;16.10;99.90;;;;;;5038193;28;20103;-76
2022/07/09 03:49:31;;;;;;;;;;;16.10;99.90;;;;;;5021878;28;20346;-74
2022/07/09 03:51:58;;;;;;;25.27;9.27;;;16.10;99.90;;;;;;5038358;28;19987;-75
2022/07/09 03:54:23;;;;;;;28.10;9.88;;;16.10;99.90;;;;;;5021624;28;20050;-76
2022/07/09 03:56:50;;;;;;;28.15;9.73;;;16.10;99.90;;;;;;5019832;28;20041;-76
2022/07/09 03:59:16;;;;;;;24.17;9.98;;;16.00;99.90;;;;;;5020751;28;20041;-75
2022/07/09 04:01:42;;;;;;;25.23;8.37;;;16.00;99.90;;;;;;5038696;28;20109;-76
2022/07/09 04:04:08;;;;;;;25.00;9.43;;;16.00;99.90;;;;;;5006914;28;20090;-77
2022/07/09 04:06:33;;;;;;;26.95;10.07;;;16.00;99.90;;;;;;5041383;28;20108;-77
2022/07/09 04:09:04;;;;;;;28.77;9.27;;;15.90;99.90;;;;;;5041115;28;20046;-77
2022/07/09 04:11:31;;;;;;;27.33;9.35;;;15.90;99.90;;;;;;5041122;28;20041;-77
2022/07/09 04:13:58;;;;;;;24.35;9.02;;;15.90;99.90;;;;;;5040922;28;20045;-77
2022/07/09 04:16:23;;;;;;;26.85;9.68;;;16.00;99.90;;;;;;5023458;28;20061;-77
2022/07/09 04:18:49;;;;;;;22.70;8.23;;;16.00;99.90;;;;;;5036440;28;20056;-76
2022/07/09 04:21:16;;;;;;;25.00;9.07;;;16.00;99.90;;;;;;5046013;28;20052;-77
2022/07/09 04:23:42;;;;;;;31.70;9.48;;;16.00;99.90;;;;;;5021840;28;20053;-77
2022/07/09 04:26:09;;;;;;;26.23;9.27;;;16.00;99.90;;;;;;5040245;28;20387;-76
2022/07/09 04:28:37;;;;;;;26.77;8.85;;;16.00;99.90;;;;;;5037889;28;20046;-76
2022/07/09 04:31:03;;;;;;;22.85;9.13;;;16.00;99.90;;;;;;5038328;28;20159;-76
2022/07/09 04:33:29;;;;;;;24.93;9.47;;;15.90;99.90;;;;;;5020857;28;20176;-77
2022/07/09 04:35:55;;;;;;;26.90;9.52;;;16.00;99.90;;;;;;5036279;28;20419;-78
2022/07/09 04:38:20;;;;;;;26.47;10.33;;;16.00;99.90;;;;;;5035957;28;20045;-76
2022/07/09 04:40:46;;;;;;;25.05;10.30;;;16.00;99.90;;;;;;5018266;28;20049;-77
2022/07/09 04:43:12;;;;;;;30.97;11.47;;;15.90;99.90;;;;;;5002707;28;20047;-77
2022/07/09 04:45:37;;;;;;;24.15;10.15;;;15.90;99.90;;;;;;5038209;28;20049;-78
2022/07/09 04:48:03;;;;;;;23.13;10.23;;;15.90;99.90;;;;;;4987312;28;20111;-78
2022/07/09 04:50:29;;;;;;;34.00;10.90;;;15.80;99.90;;;;;;5035115;28;20532;-76
2022/07/09 04:52:55;;;;;;;26.50;10.65;;;15.90;99.90;;;;;;5035541;28;20041;-76
2022/07/09 04:55:21;;;;;;;29.93;9.30;;;16.00;99.90;;;;;;5038141;28;20042;-76
2022/07/09 04:57:47;;;;;;;24.00;9.27;;;16.10;99.90;;;;;;5004511;28;20045;-76
2022/07/09 05:00:15;;;;;;;26.55;9.77;;;16.10;99.90;;;;;;5019347;28;20065;-76
2022/07/09 05:02:42;;;;;;;24.40;9.38;;;16.20;99.90;;;;;;5038144;28;20160;-76
2022/07/09 05:05:08;;;;;;;25.02;9.75;;;16.20;99.90;;;;;;5035966;28;20049;-77
2022/07/09 05:07:34;;;;;;;26.73;10.25;;;16.30;99.90;;;;;;5036369;28;20056;-77
2022/07/09 05:10:01;;;;;;;23.13;8.80;;;16.40;99.90;;;;;;5035987;28;20081;-78
2022/07/09 05:12:27;;;;;;;21.98;9.02;;;16.50;99.90;;;;;;5040204;28;20049;-77
2022/07/09 05:14:54;;;;;;;27.65;9.73;;;16.60;99.90;;;;;;5022606;28;20105;-77
2022/07/09 05:17:20;;;;;;;;;;;16.60;99.90;;;;;;5023160;28;20056;-77
2022/07/09 05:19:45;;;;;;;25.13;8.93;;;16.70;99.90;;;;;;5017061;28;19921;-78
2022/07/09 05:22:11;;;;;;;29.63;9.35;;;16.70;99.90;;;;;;5034676;28;20053;-79
2022/07/09 05:24:37;;;;;;;22.97;8.50;;;16.70;99.90;;;;;;5002299;28;20068;-75
2022/07/09 05:27:03;;;;;;;25.95;8.93;;;16.80;99.90;;;;;;5021503;28;20079;-76
2022/07/09 05:29:29;;;;;;;24.20;9.18;;;16.80;99.90;;;;;;5021112;28;20093;-75
2022/07/09 05:31:57;;;;;;;24.40;9.20;;;16.80;99.90;;;;;;5020973;28;20053;-76
2022/07/09 05:34:23;;;;;;;28.25;10.02;;;16.80;99.90;;;;;;5018339;28;20292;-75
2022/07/09 05:36:51;;;;;;;21.63;8.70;;;16.70;99.90;;;;;;5036891;28;20347;-75
2022/07/09 05:39:17;;;;;;;27.73;10.10;;;16.80;99.90;;;;;;5002768;28;20052;-75
2022/07/09 05:41:43;;;;;;;22.83;8.55;;;16.70;99.90;;;;;;5036318;28;20057;-77
2022/07/09 05:44:09;;;;;;;19.85;8.20;;;16.80;99.90;;;;;;5019405;28;20121;-77
2022/07/09 05:46:35;;;;;;;23.80;8.63;;;16.90;99.90;;;;;;5035817;28;20057;-77
2022/07/09 05:49:02;;;;;;;23.77;8.53;;;16.90;99.90;;;;;;5036328;28;20034;-77
2022/07/09 05:51:28;;;;;;;23.60;8.73;;;17.10;99.90;;;;;;5038486;28;20092;-77
2022/07/09 05:53:53;;;;;;;22.87;7.67;;;17.20;99.90;;;;;;5038178;28;20046;-76
2022/07/09 05:56:19;;;;;;;21.50;7.87;;;17.30;99.90;;;;;;4987936;28;20124;-77
2022/07/09 05:58:46;;;;;;;22.63;7.88;;;17.50;99.90;;;;;;5037332;28;20401;-77
2022/07/09 06:01:12;;;;;;;28.50;7.80;;;17.60;99.90;;;;;;5020621;28;20136;-77
2022/07/09 06:03:39;;;;;;;21.65;7.72;;;17.80;99.90;;;;;;5020748;28;20128;-78
2022/07/09 06:06:05;;;;;;;20.33;7.43;;;18.00;99.90;;;;;;5020777;28;20046;-77
2022/07/09 06:08:32;;;;;;;17.60;6.73;;;18.10;99.90;;;;;;5019428;28;20127;-76
2022/07/09 06:10:57;;;;;;;19.25;7.53;;;18.30;99.90;;;;;;5002988;28;20049;-78
2022/07/09 06:13:23;;;;;;;20.73;7.57;;;18.40;99.90;;;;;;5036545;28;20045;-78
2022/07/09 06:15:49;;;;;;;21.30;6.40;;;18.50;99.90;;;;;;5037171;28;20466;-77
2022/07/09 06:18:15;;;;;;;16.57;6.73;;;18.60;99.90;;;;;;5018350;28;20048;-77
2022/07/09 06:20:40;;;;;;;20.83;6.53;;;18.60;99.90;;;;;;5036054;28;20053;-76
2022/07/09 06:23:06;;;;;;;17.87;6.30;;;18.70;99.90;;;;;;5020786;28;20045;-78
2022/07/09 06:25:32;;;;;;;16.80;6.20;;;18.70;99.90;;;;;;5038211;28;20053;-78
2022/07/09 06:27:58;;;;;;;21.60;6.20;;;18.70;99.90;;;;;;5039054;28;20290;-77
2022/07/09 06:30:24;;;;;;;14.97;5.37;;;18.70;99.90;;;;;;5020656;28;20045;-79
2022/07/09 06:32:50;;;;;;;19.87;6.77;;;18.60;99.90;;;;;;5038796;28;20127;-77
2022/07/09 06:35:16;;;;;;;21.45;6.72;;;18.80;99.90;;;;;;5022100;28;20056;-76
2022/07/09 06:37:42;;;;;;;25.13;6.13;;;18.70;99.90;;;;;;5039570;28;20089;-78
2022/07/09 06:40:08;;;;;;;22.63;5.87;;;18.70;99.90;;;;;;5038881;28;20045;-77
2022/07/09 06:42:34;;;;;;;20.25;5.70;;;18.60;99.90;;;;;;5039011;28;20106;-80
2022/07/09 06:44:59;;;;;;;14.60;5.70;;;18.70;99.90;;;;;;5020755;28;20101;-78
2022/07/09 06:47:25;;;;;;;14.63;5.30;;;18.80;99.90;;;;;;5021483;28;20084;-79
2022/07/09 06:49:51;;;;;;;14.77;6.13;;;18.80;99.90;;;;;;5020769;28;20053;-78
2022/07/09 06:52:16;;;;;;;16.97;5.10;;;18.80;99.90;;;;;;5038476;28;20374;-78
2022/07/09 06:54:42;;;;;;;16.80;5.30;;;18.80;99.90;;;;;;5039247;28;20363;-79
2022/07/09 06:57:10;;;;;;;17.17;5.50;;;18.80;99.90;;;;;;4990006;28;20045;-78
2022/07/09 06:59:36;;;;;;;14.70;5.45;;;18.80;99.90;;;;;;5040151;28;20080;-78
2022/07/09 07:02:02;;;;;;;20.17;5.80;;;18.90;99.90;;;;;;5020662;28;20041;-79
2022/07/09 07:04:27;;;;;;;17.10;5.47;;;19.00;99.90;;;;;;5036417;28;20103;-78
2022/07/09 07:06:53;;;;;;;18.87;5.63;;;19.10;99.90;;;;;;5019377;28;20112;-79
2022/07/09 07:09:21;;;;;;;13.07;4.63;;;19.10;99.90;;;;;;5021791;28;20400;-77
2022/07/09 07:11:48;;;;;;;16.45;5.07;;;19.20;99.90;;;;;;5019454;28;20050;-77
2022/07/09 07:14:15;;;;;;;19.33;5.07;;;19.30;99.90;;;;;;5019178;28;20060;-78
2022/07/09 07:16:41;;;;;;;16.15;4.97;;;19.40;99.90;;;;;;5019800;28;20049;-77
2022/07/09 07:19:08;;;;;;;13.15;4.95;;;19.60;99.90;;;;;;5020721;28;20049;-77
2022/07/09 07:21:34;;;;;;;16.08;4.70;;;19.70;99.90;;;;;;5038985;28;20046;-77
2022/07/09 07:24:00;;;;;;;14.47;4.50;;;19.80;99.90;;;;;;5005516;28;20106;-77
2022/07/09 07:26:25;;;;;;;12.77;4.23;;;19.80;99.90;;;;;;5037147;28;20510;-79
2022/07/09 07:28:51;;;;;;;9.33;3.60;;;19.90;99.90;;;;;;5036674;28;20053;-78
2022/07/09 07:31:17;;;;;;;10.40;3.43;;;20.00;99.90;;;;;;5021023;28;20044;-80
2022/07/09 07:33:43;;;;;;;10.50;2.73;;;19.90;99.90;;;;;;5019392;28;20053;-78
2022/07/09 07:36:08;;;;;;;9.03;3.70;;;20.00;99.90;;;;;;5037531;28;20056;-78
2022/07/09 07:38:35;;;;;;;10.80;2.77;;;20.10;99.90;;;;;;5040791;28;20049;-80
2022/07/09 07:41:01;;;;;;;11.38;2.88;;;20.00;99.90;;;;;;5022985;28;20049;-78
2022/07/09 07:43:26;;;;;;;9.93;2.70;;;20.10;99.90;;;;;;5021231;28;20075;-78
2022/07/09 07:45:53;;;;;;;9.17;3.00;;;20.10;99.90;;;;;;5021788;28;20057;-78
2022/07/09 07:48:19;;;;;;;;;;;20.20;99.90;;;;;;5039160;28;20045;-77
2022/07/09 07:50:44;;;;;;;8.33;2.40;;;20.20;99.90;;;;;;5021496;28;20022;-80
2022/07/09 07:53:10;;;;;;;17.67;3.17;;;20.30;99.90;;;;;;5021567;28;20053;-78
2022/07/09 07:55:36;;;;;;;10.27;2.40;;;20.30;99.90;;;;;;5020438;28;20053;-79
2022/07/09 07:58:02;;;;;;;6.83;2.40;;;20.20;99.90;;;;;;5038290;28;20092;-76
2022/07/09 08:00:28;;;;;;;7.37;2.50;;;20.10;99.90;;;;;;5020721;28;20060;-78
2022/07/09 08:02:54;;;;;;;8.17;2.40;;;20.10;99.90;;;;;;5020848;28;20057;-78
2022/07/09 08:05:20;;;;;;;5.05;2.03;;;20.10;99.90;;;;;;5038351;28;20041;-77
2022/07/09 08:07:46;;;;;;;5.40;1.93;;;20.00;99.90;;;;;;5004934;28;20087;-77
2022/07/09 08:10:11;;;;;;;8.60;2.43;;;20.00;99.90;;;;;;5037965;28;20045;-76
2022/07/09 08:12:37;;;;;;;6.07;2.47;;;19.90;99.90;;;;;;5038473;28;20069;-77
2022/07/09 08:15:04;;;;;;;7.50;2.87;;;19.70;99.90;;;;;;5038787;28;20050;-77
2022/07/09 08:17:29;;;;;;;6.97;2.20;;;19.50;99.90;;;;;;5003842;28;20112;-78
2022/07/09 08:19:55;;;;;;;9.97;3.10;;;19.60;99.90;;;;;;5020187;28;20041;-78
2022/07/09 08:22:21;;;;;;;12.00;2.50;;;19.80;99.90;;;;;;5003830;28;20045;-77
2022/07/09 08:24:52;;;;;;;7.85;2.50;;;20.00;99.90;;;;;;5003535;28;20057;-77
2022/07/09 08:27:18;;;;;;;8.50;2.93;;;20.10;99.90;;;;;;5020081;28;20060;-77
2022/07/09 08:29:44;;;;;;;8.83;3.07;;;20.30;99.90;;;;;;5021706;28;20121;-78
2022/07/09 08:32:10;;;;;;;13.40;3.13;;;20.40;99.90;;;;;;5023361;28;20060;-78
2022/07/09 08:34:35;;;;;;;8.90;2.97;;;20.30;99.90;;;;;;5007074;28;20285;-79
2022/07/09 08:37:01;;;;;;;11.53;3.27;;;20.40;99.90;;;;;;5041054;28;20047;-77
2022/07/09 08:39:27;;;;;;;9.47;3.23;;;20.40;99.90;;;;;;5040365;28;20048;-76
2022/07/09 08:41:53;;;;;;;10.07;3.37;;;20.30;99.90;;;;;;5008653;28;20057;-77
2022/07/09 08:44:20;;;;;;;10.82;3.47;;;20.30;99.90;;;;;;5006171;28;20080;-79
2022/07/09 08:46:46;;;;;;;14.15;3.20;;;20.30;99.90;;;;;;5021442;28;20049;-78
2022/07/09 08:49:14;;;;;;;13.15;3.25;;;20.40;99.90;;;;;;5038575;28;20374;-77
2022/07/09 08:51:42;;;;;;;10.05;2.03;;;20.60;99.90;;;;;;5037444;28;20045;-76
2022/07/09 08:54:08;;;;;;;6.78;2.20;;;20.40;99.90;;;;;;5038086;28;20041;-76
2022/07/09 08:56:35;;;;;;;7.23;1.83;;;20.50;99.90;;;;;;5020727;28;20046;-74
2022/07/09 08:59:01;;;;;;;6.20;1.40;;;20.80;99.90;;;;;;5036736;28;20507;-77
2022/07/09 09:01:27;;;;;;;8.27;1.90;;;21.00;99.90;;;;;;5036321;28;20046;-77
2022/07/09 09:03:54;;;;;;;8.35;1.80;;;21.10;99.90;;;;;;5036428;28;20088;-75
2022/07/09 09:06:21;;;;;;;4.40;1.50;;;21.20;99.90;;;;;;5036672;28;20374;-77
2022/07/09 09:08:47;;;;;;;2.78;1.10;;;21.50;99.90;;;;;;5018780;28;20152;-75
2022/07/09 09:11:20;;;;;;;5.83;1.70;;;21.70;99.90;;;;;;5037176;28;20046;-75
2022/07/09 09:13:47;;;;;;;13.27;2.38;;;21.70;99.90;;;;;;5037786;28;20043;-77
2022/07/09 09:16:16;;;;;;;23.17;2.75;;;21.00;99.90;;;;;;5020042;28;20053;-76
2022/07/09 09:18:50;;;;;;;18.92;2.22;;;21.20;99.90;;;;;;5019889;28;20053;-78
2022/07/09 09:21:20;;;;;;;4.93;1.50;;;21.40;99.90;;;;;;5020523;28;20049;-76
2022/07/09 09:23:54;;;;;;;10.05;1.55;;;21.40;99.90;;;;;;5042092;28;20146;-77
2022/07/09 09:26:22;;;;;;;4.85;1.38;;;21.60;99.90;;;;;;5021519;28;20065;-76
2022/07/09 09:29:00;;;;;;;5.50;1.40;;;21.60;99.90;;;;;;5036948;28;20115;-76
2022/07/09 09:31:36;;;;;;;4.90;1.40;;;21.90;99.90;;;;;;5037228;28;20132;-77
2022/07/09 09:34:12;;;;;;;7.55;1.45;;;22.10;99.90;;;;;;5003178;28;20064;-79
2022/07/09 09:36:52;;;;;;;6.68;1.30;;;21.90;99.90;;;;;;5019059;28;20049;-77
2022/07/09 09:39:25;;;;;;;8.43;1.48;;;22.10;99.90;;;;;;5037773;28;20041;-77
2022/07/09 09:42:01;;;;;;;6.82;1.67;;;22.30;99.90;;;;;;5037508;28;20059;-77
2022/07/09 09:44:37;;;;;;;5.47;1.40;;;22.20;99.90;;;;;;5020634;28;20101;-79
2022/07/09 09:47:04;;;;;;;7.18;1.73;;;22.30;99.90;;;;;;5038722;28;20118;-78
2022/07/09 09:49:31;;;;;;;5.25;1.50;;;22.10;99.90;;;;;;5036849;28;20080;-78
2022/07/09 09:52:07;;;;;;;8.70;1.50;;;21.90;99.90;;;;;;5004432;28;20053;-79
2022/07/09 09:54:38;;;;;;;4.88;1.38;;;22.10;99.90;;;;;;5020808;28;20111;-78
2022/07/09 09:57:18;;;;;;;6.10;1.40;;;21.90;99.90;;;;;;5020332;28;20049;-78
2022/07/09 09:59:45;;;;;;;4.95;1.40;;;22.00;99.90;;;;;;5020054;28;20414;-77
2022/07/09 10:02:12;;;;;;;4.85;1.38;;;22.50;99.90;;;;;;5035945;28;20190;-77
2022/07/09 10:04:44;;;;;;;8.63;1.38;;;22.70;99.90;;;;;;5019667;28;20179;-78
2022/07/09 10:07:16;;;;;;;7.77;1.50;;;22.60;99.90;;;;;;5019197;28;20087;-77
2022/07/09 10:09:57;;;;;;;5.80;1.25;;;22.30;99.90;;;;;;5034980;28;20284;-77
2022/07/09 10:12:30;;;;;;;5.70;1.60;;;22.30;99.90;;;;;;5019401;28;20120;-76
2022/07/09 10:14:57;;;;;;;6.13;1.30;;;22.10;99.90;;;;;;5003675;28;20037;-77
2022/07/09 10:17:25;;;;;;;4.78;1.38;;;22.20;99.90;;;;;;5002212;28;20061;-79
2022/07/09 10:20:11;;;;;;;3.63;1.10;;;22.30;99.90;;;;;;5036131;28;20120;-77
2022/07/09 10:22:40;;;;;;;3.00;0.95;;;22.60;99.90;;;;;;5019163;28;20045;-78
2022/07/09 10:25:11;;;;;;;7.25;1.10;;;22.70;99.90;;;;;;5003325;28;20061;-78
2022/07/09 10:27:48;;;;;;;7.38;1.17;;;23.00;99.90;;;;;;5006442;28;20135;-78
2022/07/09 10:30:24;;;;;;;6.47;1.17;;;22.70;99.90;;;;;;5005969;28;20052;-79
2022/07/09 10:33:07;;;;;;;5.57;1.00;;;22.20;99.90;;;;;;5039810;28;20072;-81
2022/07/09 10:35:44;;;;;;;3.63;1.10;;;22.30;99.90;;;;;;5039540;28;20050;-80
2022/07/09 10:38:12;;;;;;;7.18;1.20;;;21.80;99.90;;;;;;5004793;28;20049;-77
2022/07/09 10:40:43;;;;;;;6.38;1.15;;;22.20;99.90;;;;;;5021291;28;20484;-78
2022/07/09 10:43:10;;;;;;;5.78;1.05;;;22.50;99.90;;;;;;5022611;28;20072;-81
2022/07/09 10:45:47;;;;;;;5.22;0.75;;;22.40;99.90;;;;;;5021297;28;20075;-80
2022/07/09 10:48:15;;;;;;;7.95;1.25;;;22.50;98.40;;;;;;5019493;28;20045;-79
2022/07/09 10:50:42;;;;;;;6.50;0.98;;;22.50;98.90;;;;;;5019275;28;20060;-78
2022/07/09 10:53:10;;;;;;;6.03;0.90;;;22.50;99.80;;;;;;5021387;28;20082;-78
2022/07/09 10:55:35;;;;;;;6.10;1.08;;;22.70;99.90;;;;;;5021433;28;20088;-78
2022/07/09 10:58:07;;;;;;;7.47;1.00;;;22.70;99.90;;;;;;5020177;28;20054;-82
2022/07/09 11:00:33;;;;;;;4.43;1.00;;;22.70;99.90;;;;;;5006572;28;20083;-78
2022/07/09 11:03:04;;;;;;;9.63;1.02;;;22.80;99.80;;;;;;5006014;28;20048;-77
2022/07/09 11:05:33;;;;;;;7.90;1.00;;;22.40;99.40;;;;;;5006083;28;20076;-78
2022/07/09 11:08:04;;;;;;;3.65;0.90;;;22.60;99.90;;;;;;5020902;28;20122;-79
2022/07/09 11:10:32;;;;;;;5.38;1.00;;;22.60;99.70;;;;;;5005559;28;20053;-77
2022/07/09 11:13:02;;;;;;;7.65;1.10;;;22.10;98.50;;;;;;5040560;28;20056;-77
2022/07/09 11:15:33;;;;;;;5.78;1.30;;;22.10;99.60;;;;;;5010735;28;20054;-79
2022/07/09 11:18:07;;;;;;;4.18;1.00;;;22.30;99.90;;;;;;5010095;28;20128;-78
2022/07/09 11:20:44;;;;;;;5.20;1.10;;;22.50;99.90;;;;;;5025284;28;20050;-77
2022/07/09 11:23:14;;;;;;;5.05;1.27;;;22.70;99.90;;;;;;5043277;28;20092;-78
2022/07/09 11:25:40;;;;;;;7.32;1.27;;;22.50;99.90;;;;;;5007718;28;20057;-76
2022/07/09 11:28:06;;;;;;;;;;;22.70;99.90;;;;;;5024181;28;20045;-76
2022/07/09 11:30:32;;;;;;;3.88;1.20;;;22.90;99.90;;;;;;5049099;28;19964;-79
2022/07/09 11:33:01;;;;;;;7.40;1.30;;;22.60;99.00;;;;;;5011816;28;20053;-78
2022/07/09 11:35:35;;;;;;;5.28;1.30;;;22.70;97.50;;;;;;5012521;28;20057;-79
2022/07/09 11:38:03;;;;;;;7.05;1.10;;;23.00;98.20;;;;;;5029571;28;20105;-81
2022/07/09 11:40:30;;;;;;;7.60;1.10;;;23.00;98.10;;;;;;4995593;28;20085;-78
2022/07/09 11:42:57;;;;;;;7.50;1.20;;;22.40;98.00;;;;;;5008796;28;20068;-78
2022/07/09 11:45:28;;;;;;;7.28;1.25;;;22.70;98.80;;;;;;5042298;28;20053;-77
2022/07/09 11:48:07;;;;;;;6.20;1.08;;;22.30;97.90;;;;;;5010556;28;20501;-78
2022/07/09 11:50:41;;;;;;;5.03;1.30;;;22.30;98.00;;;;;;5044475;28;20128;-81
2022/07/09 11:53:19;;;;;;;5.18;1.13;;;21.90;99.30;;;;;;5044416;28;20050;-77
2022/07/09 11:56:06;;;;;;;3.85;1.10;;;22.50;99.60;;;;;;5025023;28;20347;-79
2022/07/09 11:58:32;;;;;;;10.48;1.88;;;23.00;98.90;;;;;;5041759;28;20474;-79
2022/07/09 12:01:02;;;;;;;12.27;1.70;;;23.00;99.50;;;;;;5008142;28;20049;-80
2022/07/09 12:03:30;;;;;;;9.88;1.80;;;22.30;99.90;;;;;;5024824;28;20107;-79
2022/07/09 12:05:57;;;;;;;12.45;2.70;;;22.00;99.90;;;;;;5009944;28;20056;-81
2022/07/09 12:08:30;;;;;;;13.07;2.60;;;21.40;99.90;;;;;;5010746;28;20373;-82
2022/07/09 12:10:57;;;;;;;10.80;2.42;;;21.60;99.90;;;;;;5009599;28;20473;-79
2022/07/09 12:13:24;;;;;;;9.55;2.55;;;21.30;99.90;;;;;;5012312;28;20373;-80
2022/07/09 12:15:49;;;;;;;12.35;2.47;;;21.60;99.90;;;;;;5041691;28;20049;-80
2022/07/09 12:18:17;;;;;;;10.27;2.10;;;21.60;99.90;;;;;;5025423;28;20117;-80
2022/07/09 12:20:43;;;;;;;10.23;2.00;;;21.80;99.90;;;;;;5044126;28;20056;-80
2022/07/09 12:23:08;;;;;;;7.45;2.05;;;21.50;99.90;;;;;;5042751;28;20045;-78
2022/07/09 12:25:34;;;;;;;7.10;1.60;;;21.00;99.90;;;;;;5040663;28;20108;-79
2022/07/09 12:28:00;;;;;;;12.47;1.90;;;20.90;99.90;;;;;;4992521;28;20081;-82
2022/07/09 12:30:26;;;;;;;7.87;1.60;;;21.10;99.90;;;;;;5024384;28;20415;-78
2022/07/09 12:32:51;;;;;;;9.60;2.03;;;21.10;99.90;;;;;;5007516;28;20045;-78
2022/07/09 12:35:18;;;;;;;9.57;1.80;;;21.30;99.90;;;;;;5025011;28;20123;-78
2022/07/09 12:37:44;;;;;;;9.57;2.20;;;21.10;99.90;;;;;;5024046;28;20037;-79
2022/07/09 12:40:11;;;;;;;9.90;1.67;;;20.90;99.90;;;;;;5023890;28;20052;-78